THY2507 LTFE-LTFM
Flight info
| Callsign | THY2507 |
|---|---|
| Flight time | N/A |
| Altitude | 36000 |
| Route | AKBUK1V/28R AKBUK UN618 DUGLA/N0455F370 UZ713 INBET |
| Aircraft | B738/M-SDE2E3FGHIRWXY/LB1 |
Departure
| Time | 2026-04-26 09:59 |
|---|---|
| Airport | Milas Bodrum International Airport (LTFE) |
Arrival
| Time | N/A |
|---|---|
| Airport | İstanbul Airport (LTFM) |
| Time | Latitude | Longitude | Altitude | Speed | Heading |
|---|---|---|---|---|---|
| 2026-04-26 09:21 | 37.24550 | 27.67101 | 26 ft | 0 kts | 197° |
| 2026-04-26 09:21 | 37.24535 | 27.67095 | 31 ft | 0 kts | 197° |
| 2026-04-26 09:22 | 37.24550 | 27.67101 | 26 ft | 0 kts | 197° |
| 2026-04-26 09:43 | 37.24551 | 27.67101 | 26 ft | 2 kts | 197° |
| 2026-04-26 09:44 | 37.24575 | 27.67111 | 26 ft | 4 kts | 199° |
| 2026-04-26 09:44 | 37.24600 | 27.67122 | 26 ft | 3 kts | 192° |
| 2026-04-26 09:44 | 37.24616 | 27.67124 | 31 ft | 0 kts | 167° |
| 2026-04-26 09:46 | 37.24614 | 27.67125 | 26 ft | 3 kts | 162° |
| 2026-04-26 09:46 | 37.24602 | 27.67152 | 26 ft | 4 kts | 89° |
| 2026-04-26 09:46 | 37.24608 | 27.67186 | 26 ft | 4 kts | 85° |
| 2026-04-26 09:46 | 37.24606 | 27.67195 | 26 ft | 0 kts | 106° |
| 2026-04-26 09:48 | 37.24605 | 27.67199 | 27 ft | 4 kts | 104° |
| 2026-04-26 09:49 | 37.24599 | 27.67227 | 27 ft | 0 kts | 106° |
| 2026-04-26 09:49 | 37.24599 | 27.67228 | 27 ft | 0 kts | 106° |
| 2026-04-26 09:49 | 37.24592 | 27.67256 | 27 ft | 8 kts | 106° |
| 2026-04-26 09:49 | 37.24570 | 27.67350 | 27 ft | 13 kts | 107° |
| 2026-04-26 09:50 | 37.24545 | 27.67458 | 27 ft | 13 kts | 105° |
| 2026-04-26 09:50 | 37.24521 | 27.67563 | 28 ft | 12 kts | 109° |
| 2026-04-26 09:50 | 37.24494 | 27.67665 | 28 ft | 12 kts | 107° |
| 2026-04-26 09:50 | 37.24471 | 27.67765 | 28 ft | 12 kts | 107° |
| 2026-04-26 09:51 | 37.24454 | 27.67839 | 29 ft | 4 kts | 108° |
| 2026-04-26 09:51 | 37.24448 | 27.67859 | 29 ft | 0 kts | 108° |
| 2026-04-26 09:54 | 37.24444 | 27.67875 | 29 ft | 6 kts | 106° |
| 2026-04-26 09:54 | 37.24431 | 27.67932 | 29 ft | 7 kts | 105° |
| 2026-04-26 09:54 | 37.24421 | 27.67990 | 29 ft | 7 kts | 84° |
| 2026-04-26 09:54 | 37.24441 | 27.68027 | 29 ft | 5 kts | 34° |
| 2026-04-26 09:55 | 37.24472 | 27.68050 | 29 ft | 5 kts | 28° |
| 2026-04-26 09:55 | 37.24505 | 27.68066 | 29 ft | 5 kts | 20° |
| 2026-04-26 09:55 | 37.24551 | 27.68084 | 29 ft | 11 kts | 17° |
| 2026-04-26 09:55 | 37.24612 | 27.68107 | 29 ft | 3 kts | 17° |
| 2026-04-26 09:56 | 37.24619 | 27.68110 | 29 ft | 0 kts | 16° |
| 2026-04-26 09:57 | 37.24656 | 27.68123 | 29 ft | 13 kts | 14° |
| 2026-04-26 09:57 | 37.24736 | 27.68088 | 29 ft | 8 kts | 304° |
| 2026-04-26 09:58 | 37.24740 | 27.68071 | 29 ft | 0 kts | 284° |
| 2026-04-26 09:58 | 37.24741 | 27.68070 | 29 ft | 3 kts | 284° |
| 2026-04-26 09:59 | 37.24830 | 27.67701 | 29 ft | 90 kts | 287° |
| 2026-04-26 09:59 | 37.24986 | 27.67047 | 26 ft | 145 kts | 286° |
| 2026-04-26 09:59 | 37.25435 | 27.65115 | 754 ft | 188 kts | 285° |
| 2026-04-26 09:59 | 37.25819 | 27.63486 | 1828 ft | 192 kts | 289° |
| 2026-04-26 10:00 | 37.26235 | 27.61775 | 2538 ft | 220 kts | 289° |
| 2026-04-26 10:00 | 37.26714 | 27.59800 | 2798 ft | 252 kts | 289° |
| 2026-04-26 10:00 | 37.27230 | 27.57618 | 3382 ft | 267 kts | 288° |
| 2026-04-26 10:00 | 37.27734 | 27.55366 | 4337 ft | 268 kts | 288° |
| 2026-04-26 10:01 | 37.28264 | 27.53112 | 5308 ft | 272 kts | 289° |
| 2026-04-26 10:01 | 37.28806 | 27.50833 | 6123 ft | 280 kts | 288° |
| 2026-04-26 10:01 | 37.29379 | 27.48468 | 6969 ft | 285 kts | 292° |
| 2026-04-26 10:01 | 37.30461 | 27.46410 | 7778 ft | 285 kts | 320° |
| 2026-04-26 10:02 | 37.32198 | 27.45243 | 8558 ft | 286 kts | 347° |
| 2026-04-26 10:02 | 37.34169 | 27.45042 | 8924 ft | 284 kts | 4° |
| 2026-04-26 10:02 | 37.36172 | 27.45171 | 8986 ft | 291 kts | 5° |
| 2026-04-26 10:02 | 37.38189 | 27.45326 | 8987 ft | 289 kts | 5° |
| 2026-04-26 10:03 | 37.40190 | 27.45474 | 8996 ft | 286 kts | 5° |
| 2026-04-26 10:03 | 37.42173 | 27.45610 | 8994 ft | 285 kts | 5° |
| 2026-04-26 10:03 | 37.44149 | 27.45737 | 9001 ft | 284 kts | 5° |
| 2026-04-26 10:03 | 37.46121 | 27.45861 | 9014 ft | 283 kts | 5° |
| 2026-04-26 10:04 | 37.48116 | 27.45984 | 9393 ft | 290 kts | 5° |
| 2026-04-26 10:04 | 37.50158 | 27.45914 | 10116 ft | 298 kts | 348° |
| 2026-04-26 10:04 | 37.52125 | 27.45000 | 10615 ft | 316 kts | 337° |
| 2026-04-26 10:04 | 37.54220 | 27.43759 | 10832 ft | 342 kts | 335° |
| 2026-04-26 10:05 | 37.56415 | 27.42424 | 11011 ft | 366 kts | 335° |
| 2026-04-26 10:05 | 37.58766 | 27.41019 | 11494 ft | 378 kts | 336° |
| 2026-04-26 10:05 | 37.61160 | 27.39614 | 12272 ft | 380 kts | 336° |
| 2026-04-26 10:05 | 37.63567 | 27.38216 | 13093 ft | 382 kts | 336° |
| 2026-04-26 10:06 | 37.66016 | 27.36852 | 13760 ft | 387 kts | 337° |
| 2026-04-26 10:06 | 37.68504 | 27.35499 | 14438 ft | 390 kts | 337° |
| 2026-04-26 10:06 | 37.71087 | 27.34391 | 15075 ft | 394 kts | 348° |
| 2026-04-26 10:06 | 37.73805 | 27.33964 | 15762 ft | 395 kts | 357° |
| 2026-04-26 10:07 | 37.76565 | 27.33792 | 16418 ft | 398 kts | 358° |
| 2026-04-26 10:07 | 37.79350 | 27.33647 | 17058 ft | 402 kts | 358° |
| 2026-04-26 10:07 | 37.82158 | 27.33504 | 17674 ft | 406 kts | 358° |
| 2026-04-26 10:07 | 37.84962 | 27.33351 | 18283 ft | 409 kts | 358° |
| 2026-04-26 10:08 | 37.87821 | 27.33186 | 18852 ft | 411 kts | 358° |
| 2026-04-26 10:08 | 37.90681 | 27.33010 | 19479 ft | 412 kts | 358° |
| 2026-04-26 10:08 | 37.93554 | 27.32829 | 20059 ft | 414 kts | 358° |
| 2026-04-26 10:08 | 37.96442 | 27.32643 | 20572 ft | 417 kts | 358° |
| 2026-04-26 10:09 | 37.98372 | 27.32518 | 20900 ft | 420 kts | 358° |
| 2026-04-26 10:09 | 38.01328 | 27.32325 | 21424 ft | 422 kts | 358° |
| 2026-04-26 10:09 | 38.04247 | 27.32133 | 21929 ft | 425 kts | 358° |
| 2026-04-26 10:09 | 38.07216 | 27.31939 | 22435 ft | 428 kts | 358° |
| 2026-04-26 10:10 | 38.10201 | 27.31743 | 22928 ft | 430 kts | 358° |
| 2026-04-26 10:10 | 38.13203 | 27.31546 | 23417 ft | 433 kts | 358° |
| 2026-04-26 10:10 | 38.16223 | 27.31348 | 23842 ft | 435 kts | 358° |
| 2026-04-26 10:10 | 38.19251 | 27.31149 | 24244 ft | 437 kts | 358° |
| 2026-04-26 10:11 | 38.22300 | 27.30949 | 24641 ft | 439 kts | 358° |
| 2026-04-26 10:11 | 38.25358 | 27.30748 | 25023 ft | 441 kts | 358° |
| 2026-04-26 10:11 | 38.28431 | 27.30546 | 25394 ft | 443 kts | 358° |
| 2026-04-26 10:11 | 38.31471 | 27.30345 | 25758 ft | 444 kts | 358° |
| 2026-04-26 10:12 | 38.34550 | 27.30142 | 26100 ft | 446 kts | 358° |
| 2026-04-26 10:12 | 38.37715 | 27.29933 | 26463 ft | 448 kts | 358° |
| 2026-04-26 10:12 | 38.40782 | 27.29730 | 26818 ft | 449 kts | 358° |
| 2026-04-26 10:12 | 38.43908 | 27.29523 | 27251 ft | 449 kts | 358° |
| 2026-04-26 10:13 | 38.47025 | 27.29316 | 27769 ft | 446 kts | 359° |
| 2026-04-26 10:13 | 38.50113 | 27.29111 | 28322 ft | 443 kts | 359° |
| 2026-04-26 10:13 | 38.53192 | 27.28907 | 28805 ft | 442 kts | 358° |
| 2026-04-26 10:13 | 38.56266 | 27.28703 | 28980 ft | 444 kts | 359° |
| 2026-04-26 10:14 | 38.62438 | 27.28293 | 28997 ft | 443 kts | 358° |
| 2026-04-26 10:14 | 38.65527 | 27.28087 | 29139 ft | 446 kts | 359° |
| 2026-04-26 10:14 | 38.68624 | 27.27881 | 29630 ft | 444 kts | 359° |
| 2026-04-26 10:15 | 38.71697 | 27.27676 | 30213 ft | 440 kts | 359° |
| 2026-04-26 10:15 | 38.74733 | 27.27472 | 30718 ft | 435 kts | 359° |
| 2026-04-26 10:15 | 38.77757 | 27.27270 | 31142 ft | 433 kts | 359° |
| 2026-04-26 10:15 | 38.80767 | 27.27069 | 31472 ft | 434 kts | 359° |
| 2026-04-26 10:16 | 38.83781 | 27.26867 | 31781 ft | 434 kts | 359° |
| 2026-04-26 10:16 | 38.86769 | 27.26668 | 32104 ft | 434 kts | 359° |
| 2026-04-26 10:16 | 38.89778 | 27.26466 | 32514 ft | 432 kts | 359° |
| 2026-04-26 10:16 | 38.92768 | 27.26265 | 32946 ft | 430 kts | 359° |
| 2026-04-26 10:17 | 38.95752 | 27.26065 | 33308 ft | 429 kts | 359° |
| 2026-04-26 10:17 | 38.98742 | 27.25864 | 33608 ft | 429 kts | 359° |
| 2026-04-26 10:17 | 39.01722 | 27.25664 | 33946 ft | 428 kts | 359° |
| 2026-04-26 10:17 | 39.04708 | 27.25463 | 33995 ft | 432 kts | 359° |
| 2026-04-26 10:18 | 39.10697 | 27.25060 | 34006 ft | 429 kts | 359° |
| 2026-04-26 10:18 | 39.16641 | 27.24658 | 34010 ft | 426 kts | 359° |
| 2026-04-26 10:19 | 39.22525 | 27.24259 | 34013 ft | 424 kts | 359° |
| 2026-04-26 10:19 | 39.28426 | 27.23860 | 34013 ft | 424 kts | 359° |
| 2026-04-26 10:20 | 39.34314 | 27.23847 | 34010 ft | 423 kts | 3° |
| 2026-04-26 10:20 | 39.40216 | 27.24175 | 34012 ft | 424 kts | 4° |
| 2026-04-26 10:21 | 39.46133 | 27.24488 | 34000 ft | 427 kts | 3° |
| 2026-04-26 10:21 | 39.52074 | 27.24754 | 34007 ft | 428 kts | 3° |
| 2026-04-26 10:22 | 39.58043 | 27.25000 | 34002 ft | 429 kts | 3° |
| 2026-04-26 10:22 | 39.64013 | 27.25243 | 34004 ft | 429 kts | 3° |
| 2026-04-26 10:23 | 39.69959 | 27.25486 | 34014 ft | 430 kts | 3° |
| 2026-04-26 10:23 | 39.75951 | 27.25733 | 34021 ft | 431 kts | 2° |
| 2026-04-26 10:24 | 39.81948 | 27.25979 | 34020 ft | 431 kts | 2° |
| 2026-04-26 10:24 | 39.87945 | 27.26227 | 34023 ft | 431 kts | 2° |
| 2026-04-26 10:25 | 39.93937 | 27.26475 | 34023 ft | 430 kts | 2° |
| 2026-04-26 10:25 | 39.99921 | 27.26723 | 34022 ft | 430 kts | 2° |
| 2026-04-26 10:26 | 40.05901 | 27.26971 | 34016 ft | 429 kts | 2° |
| 2026-04-26 10:26 | 40.08862 | 27.27094 | 33870 ft | 422 kts | 2° |
| 2026-04-26 10:26 | 40.11782 | 27.27216 | 33253 ft | 419 kts | 2° |
| 2026-04-26 10:27 | 40.14733 | 27.27339 | 32093 ft | 431 kts | 2° |
| 2026-04-26 10:27 | 40.17729 | 27.27464 | 31065 ft | 441 kts | 2° |
| 2026-04-26 10:27 | 40.20783 | 27.27614 | 30751 ft | 432 kts | 3° |
| 2026-04-26 10:27 | 40.23746 | 27.27809 | 30517 ft | 422 kts | 3° |
| 2026-04-26 10:28 | 40.26668 | 27.28020 | 30021 ft | 419 kts | 3° |
| 2026-04-26 10:28 | 40.29570 | 27.28232 | 29357 ft | 418 kts | 3° |
| 2026-04-26 10:28 | 40.32472 | 27.28440 | 28727 ft | 417 kts | 3° |
| 2026-04-26 10:28 | 40.35363 | 27.28642 | 28159 ft | 414 kts | 3° |
| 2026-04-26 10:29 | 40.38223 | 27.28839 | 27626 ft | 410 kts | 3° |
| 2026-04-26 10:29 | 40.41073 | 27.29034 | 27098 ft | 408 kts | 3° |
| 2026-04-26 10:29 | 40.43900 | 27.29227 | 26567 ft | 405 kts | 3° |
| 2026-04-26 10:29 | 40.46716 | 27.29420 | 26052 ft | 403 kts | 3° |
| 2026-04-26 10:30 | 40.49504 | 27.29611 | 25679 ft | 397 kts | 3° |
| 2026-04-26 10:30 | 40.52233 | 27.29811 | 25434 ft | 389 kts | 6° |
| 2026-04-26 10:30 | 40.54848 | 27.30582 | 25162 ft | 387 kts | 21° |
| 2026-04-26 10:30 | 40.57255 | 27.32237 | 25085 ft | 395 kts | 34° |
| 2026-04-26 10:31 | 40.59410 | 27.34512 | 25059 ft | 401 kts | 40° |
| 2026-04-26 10:31 | 40.61497 | 27.36928 | 24969 ft | 395 kts | 41° |
| 2026-04-26 10:31 | 40.63554 | 27.39332 | 24284 ft | 399 kts | 41° |
| 2026-04-26 10:31 | 40.65593 | 27.41712 | 23810 ft | 397 kts | 41° |
| 2026-04-26 10:32 | 40.67663 | 27.44121 | 23320 ft | 395 kts | 41° |
| 2026-04-26 10:32 | 40.69726 | 27.46511 | 22853 ft | 392 kts | 41° |
| 2026-04-26 10:32 | 40.71767 | 27.48870 | 22419 ft | 389 kts | 40° |
| 2026-04-26 10:32 | 40.73798 | 27.51213 | 22000 ft | 385 kts | 40° |
| 2026-04-26 10:33 | 40.75805 | 27.53528 | 21592 ft | 381 kts | 40° |
| 2026-04-26 10:33 | 40.77790 | 27.55817 | 21196 ft | 378 kts | 40° |
| 2026-04-26 10:33 | 40.79768 | 27.58099 | 20799 ft | 376 kts | 40° |
| 2026-04-26 10:33 | 40.81729 | 27.60364 | 20408 ft | 374 kts | 40° |
| 2026-04-26 10:34 | 40.83681 | 27.62620 | 20018 ft | 372 kts | 40° |
| 2026-04-26 10:34 | 40.85604 | 27.64844 | 19634 ft | 371 kts | 40° |
| 2026-04-26 10:34 | 40.87570 | 27.67119 | 19241 ft | 370 kts | 40° |
| 2026-04-26 10:34 | 40.89484 | 27.69338 | 18860 ft | 370 kts | 40° |
| 2026-04-26 10:35 | 40.91419 | 27.71581 | 18469 ft | 369 kts | 40° |
| 2026-04-26 10:35 | 40.93351 | 27.73824 | 18039 ft | 369 kts | 40° |
| 2026-04-26 10:35 | 40.95286 | 27.76070 | 17612 ft | 368 kts | 40° |
| 2026-04-26 10:35 | 40.97203 | 27.78299 | 17199 ft | 367 kts | 40° |
| 2026-04-26 10:36 | 40.99119 | 27.80528 | 16806 ft | 366 kts | 40° |
| 2026-04-26 10:36 | 41.01025 | 27.82748 | 16432 ft | 364 kts | 40° |
| 2026-04-26 10:36 | 41.02927 | 27.84963 | 16026 ft | 364 kts | 40° |
| 2026-04-26 10:36 | 41.04823 | 27.87174 | 15645 ft | 362 kts | 40° |
| 2026-04-26 10:37 | 41.06708 | 27.89374 | 15277 ft | 359 kts | 40° |
| 2026-04-26 10:37 | 41.08572 | 27.91552 | 14890 ft | 355 kts | 40° |
| 2026-04-26 10:37 | 41.10414 | 27.93706 | 14525 ft | 351 kts | 40° |
| 2026-04-26 10:37 | 41.12240 | 27.95841 | 14152 ft | 348 kts | 40° |
| 2026-04-26 10:38 | 41.14048 | 27.97958 | 13789 ft | 345 kts | 40° |
| 2026-04-26 10:38 | 41.15842 | 28.00060 | 13388 ft | 342 kts | 40° |
| 2026-04-26 10:38 | 41.17613 | 28.02139 | 13003 ft | 340 kts | 40° |
| 2026-04-26 10:38 | 41.19377 | 28.04213 | 12638 ft | 337 kts | 40° |
| 2026-04-26 10:39 | 41.21113 | 28.06251 | 12276 ft | 335 kts | 40° |
| 2026-04-26 10:39 | 41.22857 | 28.08299 | 11920 ft | 335 kts | 40° |
| 2026-04-26 10:39 | 41.24605 | 28.10354 | 11575 ft | 335 kts | 41° |
| 2026-04-26 10:39 | 41.26349 | 28.12407 | 11217 ft | 334 kts | 40° |
| 2026-04-26 10:40 | 41.28084 | 28.14444 | 10877 ft | 332 kts | 40° |
| 2026-04-26 10:40 | 41.29811 | 28.16478 | 10529 ft | 331 kts | 40° |
| 2026-04-26 10:40 | 41.31529 | 28.18504 | 10168 ft | 330 kts | 41° |
| 2026-04-26 10:40 | 41.33238 | 28.20521 | 9885 ft | 324 kts | 41° |
| 2026-04-26 10:41 | 41.34886 | 28.22471 | 9898 ft | 310 kts | 41° |
| 2026-04-26 10:41 | 41.36471 | 28.24344 | 9872 ft | 298 kts | 41° |
| 2026-04-26 10:41 | 41.37980 | 28.26130 | 9773 ft | 289 kts | 41° |
| 2026-04-26 10:41 | 41.39464 | 28.27885 | 9591 ft | 283 kts | 41° |
| 2026-04-26 10:42 | 41.40928 | 28.29620 | 9340 ft | 280 kts | 41° |
| 2026-04-26 10:42 | 41.42385 | 28.31346 | 9052 ft | 279 kts | 41° |
| 2026-04-26 10:42 | 41.43832 | 28.33064 | 8723 ft | 279 kts | 41° |
| 2026-04-26 10:42 | 41.45274 | 28.34774 | 8437 ft | 277 kts | 41° |
| 2026-04-26 10:43 | 41.46710 | 28.36479 | 8193 ft | 275 kts | 41° |
| 2026-04-26 10:43 | 41.48143 | 28.38182 | 7895 ft | 275 kts | 41° |
| 2026-04-26 10:43 | 41.49571 | 28.39879 | 7631 ft | 273 kts | 41° |
| 2026-04-26 10:43 | 41.50986 | 28.41561 | 7360 ft | 272 kts | 41° |
| 2026-04-26 10:44 | 41.52395 | 28.43238 | 7082 ft | 271 kts | 41° |
| 2026-04-26 10:44 | 41.53792 | 28.44902 | 6869 ft | 267 kts | 41° |
| 2026-04-26 10:44 | 41.55160 | 28.46532 | 6774 ft | 259 kts | 41° |
| 2026-04-26 10:44 | 41.56372 | 28.48253 | 6609 ft | 253 kts | 61° |
| 2026-04-26 10:45 | 41.56931 | 28.50398 | 6472 ft | 246 kts | 80° |
| 2026-04-26 10:45 | 41.57175 | 28.52648 | 6246 ft | 244 kts | 84° |
| 2026-04-26 10:45 | 41.57365 | 28.54906 | 5983 ft | 244 kts | 84° |
| 2026-04-26 10:45 | 41.57554 | 28.57149 | 5736 ft | 243 kts | 84° |
| 2026-04-26 10:46 | 41.57759 | 28.59383 | 5484 ft | 242 kts | 81° |
| 2026-04-26 10:46 | 41.57814 | 28.61607 | 5215 ft | 240 kts | 104° |
| 2026-04-26 10:46 | 41.57039 | 28.63537 | 5060 ft | 238 kts | 136° |
| 2026-04-26 10:46 | 41.55751 | 28.64910 | 5013 ft | 238 kts | 145° |
| 2026-04-26 10:47 | 41.54395 | 28.66179 | 4998 ft | 237 kts | 146° |
| 2026-04-26 10:47 | 41.53014 | 28.67451 | 4724 ft | 245 kts | 146° |
| 2026-04-26 10:47 | 41.51643 | 28.68750 | 4436 ft | 245 kts | 146° |
| 2026-04-26 10:47 | 41.50179 | 28.69906 | 4150 ft | 244 kts | 154° |
| 2026-04-26 10:48 | 41.48607 | 28.70771 | 3845 ft | 245 kts | 162° |
| 2026-04-26 10:48 | 41.46983 | 28.71399 | 3533 ft | 242 kts | 164° |
| 2026-04-26 10:48 | 41.45382 | 28.71970 | 3233 ft | 235 kts | 164° |
| 2026-04-26 10:48 | 41.43807 | 28.72398 | 2930 ft | 227 kts | 174° |
| 2026-04-26 10:49 | 41.42281 | 28.72484 | 2638 ft | 209 kts | 179° |
| 2026-04-26 10:49 | 41.40913 | 28.72497 | 2372 ft | 186 kts | 179° |
| 2026-04-26 10:49 | 41.39678 | 28.72515 | 2132 ft | 170 kts | 178° |
| 2026-04-26 10:49 | 41.38523 | 28.72537 | 1923 ft | 164 kts | 178° |
| 2026-04-26 10:50 | 41.37382 | 28.72560 | 1725 ft | 165 kts | 178° |
| 2026-04-26 10:50 | 41.36622 | 28.72575 | 1569 ft | 164 kts | 177° |
| 2026-04-26 10:50 | 41.35165 | 28.72602 | 1266 ft | 148 kts | 177° |
| 2026-04-26 10:50 | 41.34157 | 28.72622 | 1096 ft | 144 kts | 176° |
| 2026-04-26 10:51 | 41.33157 | 28.72642 | 928 ft | 143 kts | 178° |
| 2026-04-26 10:51 | 41.31194 | 28.72687 | 549 ft | 137 kts | 179° |
| 2026-04-26 10:51 | 41.30261 | 28.72729 | 366 ft | 132 kts | 181° |
| 2026-04-26 10:52 | 41.29346 | 28.72749 | 165 ft | 127 kts | 183° |
| 2026-04-26 10:52 | 41.28487 | 28.72746 | 315 ft | 136 kts | 180° |